Home > Products > Valid Products > MTR

000
SAUS45 KPUB 201757
MTRSPD
METAR KSPD 201756Z AUTO 30009G19KT 20/07 A3000 RMK AO1 SLP112
T02000067 10200 20100 50004





000
SAUS45 KPUB 201657
MTRSPD
METAR KSPD 201656Z AUTO 31011G20KT 19/07 A3001 RMK AO1 SLP114
T01940072





000
SAUS45 KPUB 201557
MTRSPD
METAR KSPD 201556Z AUTO 29015KT 18/08 A3000 RMK AO1 SLP111 T01830078





000
SAUS45 KPUB 201457
MTRSPD
METAR KSPD 201456Z AUTO 27012KT 16/07 A2999 RMK AO1 SLP111 T01610072
50003





000
SAUS45 KPUB 201357
MTRSPD
METAR KSPD 201356Z AUTO 28013KT 14/07 A2999 RMK AO1 SLP113 T01440072





000
SAUS45 KPUB 201257
MTRSPD
METAR KSPD 201256Z AUTO 28012KT 12/07 A2999 RMK AO1 SLP112 T01170072





000
SAUS45 KPUB 201157
MTRSPD
METAR KSPD 201156Z AUTO 22008KT 11/08 A2998 RMK AO1 SLP109 T01060078
10128 20100 50001





000
SAUS45 KPUB 201057
MTRSPD
METAR KSPD 201056Z AUTO 22010KT 11/08 A2999 RMK AO1 SLP106 T01060078





000
SAUS45 KPUB 200957
MTRSPD
METAR KSPD 200956Z AUTO 20016G22KT 12/08 A2998 RMK AO1 SLP102
T01170083





000
SAUS45 KPUB 200857
MTRSPD
METAR KSPD 200856Z AUTO 20012KT 11/07 A2997 RMK AO1 SLP096 T01060072
56011





000
SAUS45 KPUB 200757
MTRSPD
METAR KSPD 200756Z AUTO 20012KT 11/07 A2999 RMK AO1 SLP100 T01110072





000
SAUS45 KPUB 200657
MTRSPD
METAR KSPD 200656Z AUTO 19012KT 12/07 A3000 RMK AO1 SLP104 T01220072
402780100





000
SAUS45 KPUB 200557
MTRSPD
METAR KSPD 200556Z AUTO 19013KT 13/08 A3001 RMK AO1 SLP111 T01280078
10194 20128 50008





000
SAUS45 KPUB 200457
MTRSPD
METAR KSPD 200456Z AUTO 18010KT 13/07 A3001 RMK AO1 SLP113 T01330067





000
SAUS45 KPUB 200357
MTRSPD
METAR KSPD 200356Z AUTO 18010KT 14/07 A3001 RMK AO1 SLP115 T01390072





000
SAUS45 KPUB 200257
MTRSPD
METAR KSPD 200256Z AUTO 18012KT 14/06 A2998 RMK AO1 SLP111 T01440061
53008





000
SAUS45 KPUB 200157
MTRSPD
METAR KSPD 200156Z AUTO 20012KT 16/07 A2996 RMK AO1 SLP101 T01610067





000
SAUS45 KPUB 200057
MTRSPD
METAR KSPD 200056Z AUTO 19014KT 18/06 A2994 RMK AO1 PK WND
20026/2357 SLP096 T01780056





000
SAUS45 KPUB 192357
MTRSPD
METAR KSPD 192356Z AUTO 20019G25KT 19/06 A2995 RMK AO1 PK WND
21041/2309 SLP101 T01940061 10278 20194 53009





000
SAUS45 KPUB 192257
MTRSPD
METAR KSPD 192256Z AUTO 19027G39KT 22/06 A2994 RMK AO1 PK WND
18040/2244 SLP088 T02220061





000
SAUS45 KPUB 192157
MTRSPD
METAR KSPD 192156Z AUTO 18026G39KT 24/04 A2993 RMK AO1 PK WND
17040/2125 SLP085 T02390039





000
SAUS45 KPUB 192057
MTRSPD
METAR KSPD 192056Z AUTO 18025G34KT 27/03 A2992 RMK AO1 PK WND
17034/2054 SLP078 T02670028 56016





000
SAUS45 KPUB 191957
MTRSPD
METAR KSPD 191956Z AUTO 21018G29KT 27/M03 A2994 RMK AO1 PK WND
19029/1951 SLP080 T02721028





000
SAUS45 KPUB 191857
MTRSPD
METAR KSPD 191856Z AUTO 21010G22KT 26/01 A2995 RMK AO1 SLP087
T02560006





000
SAUS45 KPUB 191757
MTRSPD
METAR KSPD 191756Z AUTO 21007G17KT 23/03 A2998 RMK AO1 SLP100
T02330028 10233 20100 58006





000
SAUS45 KPUB 191657
MTRSPD
METAR KSPD 191656Z AUTO 21012KT 22/04 A3000 RMK AO1 SLP107 T02170044





000
SAUS45 KPUB 191557
MTRSPD
METAR KSPD 191556Z AUTO 21014G18KT 18/04 A3000 RMK AO1 SLP111
T01780044





000
SAUS45 KPUB 191458
MTRSPD
METAR KSPD 191456Z AUTO 21010KT 15/06 A3000 RMK AO1 SLP113 T01500061
51010





000
SAUS45 KPUB 191357
MTRSPD
METAR KSPD 191356Z AUTO 21008KT 14/06 A3000 RMK AO1 SLP112 T01390061





000
SAUS45 KPUB 191257
MTRSPD
METAR KSPD 191256Z AUTO 21009KT 12/07 A2997 RMK AO1 SLP104 T01170067





000
SAUS45 KPUB 191157
MTRSPD
METAR KSPD 191156Z AUTO 20016KT 10/06 A2997 RMK AO1 SLP101 T01000061
10133 20100 53003





000
SAUS45 KPUB 191057
MTRSPD
METAR KSPD 191056Z AUTO 21010KT 12/06 A2996 RMK AO1 SLP095 T01170056





000
SAUS45 KPUB 190957
MTRSPD
METAR KSPD 190956Z AUTO 20017KT 11/06 A2996 RMK AO1 SLP094 T01110056





000
SAUS45 KPUB 190857
MTRSPD
METAR KSPD 190856Z AUTO 19017KT 12/06 A2995 RMK AO1 SLP091 T01220056
55006





000
SAUS45 KPUB 190757
MTRSPD
METAR KSPD 190756Z AUTO 19018KT 13/06 A2995 RMK AO1 SLP090 T01280056





000
SAUS45 KPUB 190657
MTRSPD
METAR KSPD 190656Z AUTO 19018KT 13/05 A2997 RMK AO1 SLP097 T01280050
402440022





000
SAUS45 KPUB 190557
MTRSPD
METAR KSPD 190556Z AUTO 19015KT 13/04 A2998 RMK AO1 SLP102 T01330044
10217 20133 50001





000
SAUS45 KPUB 190457
MTRSPD
METAR KSPD 190456Z AUTO 19018KT 14/04 A2998 RMK AO1 SLP106 T01440039





000
SAUS45 KPUB 190357
MTRSPD
METAR KSPD 190356Z AUTO 19018KT 16/04 A2998 RMK AO1 SLP106 T01610044





000
SAUS45 KPUB 190258
MTRSPD
METAR KSPD 190256Z AUTO 18017KT 17/06 A2997 RMK AO1 SLP110 T01670056
53011





000
SAUS45 KPUB 190157
MTRSPD
METAR KSPD 190156Z AUTO 17018KT 18/03 A2995 RMK AO1 PK WND
19027/0103 SLP107 T01780033





000
SAUS45 KPUB 190057
MTRSPD
METAR KSPD 190056Z AUTO 19021KT 21/02 A2993 RMK AO1 PK WND
19029/0024 SLP099 T02060022





000
SAUS45 KPUB 182357
MTRSPD
METAR KSPD 182356Z AUTO 18021G29KT 22/03 A2994 RMK AO1 PK WND
18031/2307 SLP099 T02170028 10244 20211 56012





000
SAUS45 KPUB 182257
MTRSPD
METAR KSPD 182256Z AUTO 19021G28KT 23/03 A2994 RMK AO1 PK WND
18032/2241 SLP099 T02280028





000
SAUS45 KPUB 182157
MTRSPD
METAR KSPD 182156Z AUTO 17022G30KT 24/02 A2995 RMK AO1 PK WND
19030/2150 SLP102 T02390022





000
SAUS45 KPUB 182057
MTRSPD
METAR KSPD 182056Z AUTO 18020G28KT 24/03 A2997 RMK AO1 PK WND
18032/2012 SLP113 T02390028 56020





000
SAUS45 KPUB 181958
MTRSPD
METAR KSPD 181956Z AUTO 18019G27KT 23/02 A3000 RMK AO1 PK WND
18027/1955 SLP122 T02330017





000
SAUS45 KPUB 181857
MTRSPD
METAR KSPD 181856Z AUTO 20012G21KT 23/01 A3002 RMK AO1 SLP130
T02280006





000
SAUS45 KPUB 181757
MTRSPD
METAR KSPD 181756Z AUTO 19013KT 21/02 A3004 RMK AO1 SLP141 T02110022
10211 20039 58007





000
SAUS45 KPUB 181657
MTRSPD
METAR KSPD 181656Z AUTO 20018KT 17/03 A3006 RMK AO1 SLP152 T01720028





000
SAUS45 KPUB 181557
MTRSPD
METAR KSPD 181556Z AUTO 19015KT 14/03 A3006 RMK AO1 SLP157 T01440028





000
SAUS45 KPUB 181457
MTRSPD
METAR KSPD 181456Z AUTO 21013G20KT 11/03 A3006 RMK AO1 SLP161
T01060028 58004





000
SAUS45 KPUB 181357
MTRSPD
METAR KSPD 181356Z AUTO 20017G24KT 07/02 A3007 RMK AO1 SLP168
T00670022





000
SAUS45 KPUB 181257
MTRSPD
METAR KSPD 181256Z AUTO 20017KT 04/02 A3007 RMK AO1 PK WND
20027/1200 SLP168 T00440017





000
SAUS45 KPUB 181157
MTRSPD
METAR KSPD 181156Z AUTO 20019G26KT 04/02 A3008 RMK AO1 PK WND
20028/1143 SLP168 70003 T00440017 10044 20017 56011





000
SAUS45 KPUB 181057
MTRSPD
METAR KSPD 181056Z AUTO 20021G28KT 04/02 A3009 RMK AO1 PK WND
20030/1044 SLP173 T00440017





000
SAUS45 KPUB 180957
MTRSPD
METAR KSPD 180956Z AUTO 20017KT 04/02 A3010 RMK AO1 SLP178 T00390017





000
SAUS45 KPUB 180857
MTRSPD
METAR KSPD 180856Z AUTO 20016KT 03/01 A3012 RMK AO1 SLP186 T00280011
58017





000
SAUS45 KPUB 180757
MTRSPD
METAR KSPD 180756Z AUTO 19016KT 02/01 A3014 RMK AO1 SLP196 T00220011





000
SAUS45 KPUB 180657
MTRSPD
METAR KSPD 180656Z AUTO 20012KT 02/01 A3016 RMK AO1 SLP206 T00220006
401060017





000
SAUS45 KPUB 180557
MTRSPD
METAR KSPD 180556Z AUTO 19012KT 02/M01 A3017 RMK AO1 SLP213
T00221006 10094 20022 55001





000
SAUS45 KPUB 180457
MTRSPD
METAR KSPD 180456Z AUTO 18011KT 02/00 A3017 RMK AO1 SLP212 T00220000





000
SAUS45 KPUB 180357
MTRSPD
METAR KSPD 180356Z AUTO 16012KT 03/00 A3018 RMK AO1 SLP214 T00330000





000
SAUS45 KPUB 180257
MTRSPD
METAR KSPD 180256Z AUTO 16013KT 04/01 A3018 RMK AO1 SLP214 T00440006
53003





000
SAUS45 KPUB 180157
MTRSPD
METAR KSPD 180156Z AUTO 16010KT 06/02 A3016 RMK AO1 SLP206 T00610017





000
SAUS45 KPUB 180057
MTRSPD
METAR KSPD 180056Z AUTO 16014KT 08/02 A3016 RMK AO1 SLP200 T00830022





000
SAUS45 KPUB 172357
MTRSPD
METAR KSPD 172356Z AUTO 17014KT 09/02 A3017 RMK AO1 SLP203 T00940017
10106 20056 56009





000
SAUS45 KPUB 172257
MTRSPD
METAR KSPD 172256Z AUTO 17011KT 10/03 A3018 RMK AO1 SLP204 T01000028





000
SAUS45 KPUB 172157
MTRSPD
METAR KSPD 172156Z AUTO 18012KT 09/03 A3018 RMK AO1 SLP206 T00940028





000
SAUS45 KPUB 172057
MTRSPD
METAR KSPD 172056Z AUTO 17008KT 08/03 A3020 RMK AO1 SLP212 T00830033
56012





000
SAUS45 KPUB 171957
MTRSPD
METAR KSPD 171956Z AUTO 17009KT 08/03 A3021 RMK AO1 SLP215 T00780033





000
SAUS45 KPUB 171857
MTRSPD
METAR KSPD 171856Z AUTO 18012KT 07/04 A3022 RMK AO1 SLP222 T00670039





    US Dept of Commerce
    National Oceanic and Atmospheric Administration
    National Weather Service
    1325 East West Highway
    Silver Spring, MD 20910
    Page Author: NWS Internet Services Team
Disclaimer
Information Quality
Credits
Glossary
Privacy Policy
Freedom of Information Act (FOIA)
About Us
Career Opportunities